sensor_id;sensor_type;location;lat;lon;timestamp;P1;durP1;ratioP1;P2;durP2;ratioP2
20480;SDS011;10399;50.754;3.366;2022-09-01T00:02:28;3.90;;;2.00;;
20480;SDS011;10399;50.754;3.366;2022-09-01T00:04:56;4.00;;;2.10;;
20480;SDS011;10399;50.754;3.366;2022-09-01T00:07:24;4.05;;;2.40;;
20480;SDS011;10399;50.754;3.366;2022-09-01T00:09:55;5.45;;;2.15;;
20480;SDS011;10399;50.754;3.366;2022-09-01T00:12:23;3.47;;;2.10;;
20480;SDS011;10399;50.754;3.366;2022-09-01T00:14:51;7.10;;;2.22;;
20480;SDS011;10399;50.754;3.366;2022-09-01T00:17:19;5.68;;;2.47;;
20480;SDS011;10399;50.754;3.366;2022-09-01T00:19:46;5.80;;;1.95;;
20480;SDS011;10399;50.754;3.366;2022-09-01T00:22:14;3.38;;;2.03;;
20480;SDS011;10399;50.754;3.366;2022-09-01T00:24:41;4.90;;;2.10;;
20480;SDS011;10399;50.754;3.366;2022-09-01T00:27:09;5.18;;;1.92;;
20480;SDS011;10399;50.754;3.366;2022-09-01T00:29:36;4.50;;;1.95;;
20480;SDS011;10399;50.754;3.366;2022-09-01T00:32:08;3.70;;;1.88;;
20480;SDS011;10399;50.754;3.366;2022-09-01T00:34:36;8.05;;;2.05;;
20480;SDS011;10399;50.754;3.366;2022-09-01T00:37:03;5.97;;;2.35;;
20480;SDS011;10399;50.754;3.366;2022-09-01T00:39:30;5.10;;;2.60;;
20480;SDS011;10399;50.754;3.366;2022-09-01T00:41:57;6.47;;;2.17;;
20480;SDS011;10399;50.754;3.366;2022-09-01T00:44:24;5.13;;;1.83;;
20480;SDS011;10399;50.754;3.366;2022-09-01T00:46:56;3.00;;;2.03;;
20480;SDS011;10399;50.754;3.366;2022-09-01T00:49:32;6.85;;;2.05;;
20480;SDS011;10399;50.754;3.366;2022-09-01T00:52:06;3.20;;;1.70;;
20480;SDS011;10399;50.754;3.366;2022-09-01T00:54:41;3.75;;;2.40;;
20480;SDS011;10399;50.754;3.366;2022-09-01T00:57:11;4.80;;;2.05;;
20480;SDS011;10399;50.754;3.366;2022-09-01T00:59:42;4.07;;;2.13;;
20480;SDS011;10399;50.754;3.366;2022-09-01T01:02:14;4.28;;;2.30;;
20480;SDS011;10399;50.754;3.366;2022-09-01T01:04:42;6.20;;;2.30;;
20480;SDS011;10399;50.754;3.366;2022-09-01T01:07:09;6.70;;;2.35;;
20480;SDS011;10399;50.754;3.366;2022-09-01T01:09:39;4.43;;;2.22;;
20480;SDS011;10399;50.754;3.366;2022-09-01T01:12:09;10.45;;;2.60;;
20480;SDS011;10399;50.754;3.366;2022-09-01T01:14:47;5.70;;;2.00;;
20480;SDS011;10399;50.754;3.366;2022-09-01T01:17:17;8.10;;;2.20;;
20480;SDS011;10399;50.754;3.366;2022-09-01T01:19:47;4.82;;;2.25;;
20480;SDS011;10399;50.754;3.366;2022-09-01T01:25:32;5.32;;;2.40;;
20480;SDS011;10399;50.754;3.366;2022-09-01T01:30:30;3.70;;;2.20;;
20480;SDS011;10399;50.754;3.366;2022-09-01T01:32:59;7.38;;;2.50;;
20480;SDS011;10399;50.754;3.366;2022-09-01T01:35:28;7.25;;;2.60;;
20480;SDS011;10399;50.754;3.366;2022-09-01T01:37:57;11.98;;;2.47;;
20480;SDS011;10399;50.754;3.366;2022-09-01T01:40:24;6.97;;;2.28;;
20480;SDS011;10399;50.754;3.366;2022-09-01T01:42:51;4.57;;;2.05;;
20480;SDS011;10399;50.754;3.366;2022-09-01T01:45:20;5.88;;;2.30;;
20480;SDS011;10399;50.754;3.366;2022-09-01T01:47:49;3.85;;;2.03;;
20480;SDS011;10399;50.754;3.366;2022-09-01T01:50:20;3.85;;;2.22;;
20480;SDS011;10399;50.754;3.366;2022-09-01T01:53:02;6.13;;;2.20;;
20480;SDS011;10399;50.754;3.366;2022-09-01T01:55:37;4.22;;;2.10;;
20480;SDS011;10399;50.754;3.366;2022-09-01T01:58:05;6.03;;;2.15;;
20480;SDS011;10399;50.754;3.366;2022-09-01T02:00:37;5.10;;;2.05;;
20480;SDS011;10399;50.754;3.366;2022-09-01T02:03:04;5.57;;;2.30;;
20480;SDS011;10399;50.754;3.366;2022-09-01T02:05:34;7.90;;;2.00;;
20480;SDS011;10399;50.754;3.366;2022-09-01T02:08:03;5.78;;;2.30;;
20480;SDS011;10399;50.754;3.366;2022-09-01T02:10:38;2.20;;;1.67;;
20480;SDS011;10399;50.754;3.366;2022-09-01T02:13:07;2.92;;;2.10;;
20480;SDS011;10399;50.754;3.366;2022-09-01T02:15:51;8.88;;;1.95;;
20480;SDS011;10399;50.754;3.366;2022-09-01T02:18:26;6.90;;;2.03;;
20480;SDS011;10399;50.754;3.366;2022-09-01T02:20:56;7.35;;;2.00;;
20480;SDS011;10399;50.754;3.366;2022-09-01T02:23:26;3.58;;;1.90;;
20480;SDS011;10399;50.754;3.366;2022-09-01T02:25:56;3.28;;;1.90;;
20480;SDS011;10399;50.754;3.366;2022-09-01T02:28:42;3.88;;;1.58;;
20480;SDS011;10399;50.754;3.366;2022-09-01T02:31:20;6.25;;;2.20;;
20480;SDS011;10399;50.754;3.366;2022-09-01T02:33:48;3.35;;;1.90;;
20480;SDS011;10399;50.754;3.366;2022-09-01T02:36:16;2.35;;;1.60;;
20480;SDS011;10399;50.754;3.366;2022-09-01T02:38:45;3.83;;;1.80;;
20480;SDS011;10399;50.754;3.366;2022-09-01T02:41:21;5.70;;;1.83;;
20480;SDS011;10399;50.754;3.366;2022-09-01T02:43:54;8.55;;;1.88;;
20480;SDS011;10399;50.754;3.366;2022-09-01T02:46:22;4.57;;;1.55;;
20480;SDS011;10399;50.754;3.366;2022-09-01T02:48:50;5.03;;;1.58;;
20480;SDS011;10399;50.754;3.366;2022-09-01T02:51:18;3.88;;;1.80;;
20480;SDS011;10399;50.754;3.366;2022-09-01T02:53:47;5.85;;;1.77;;
20480;SDS011;10399;50.754;3.366;2022-09-01T02:56:21;4.47;;;1.83;;
20480;SDS011;10399;50.754;3.366;2022-09-01T02:58:51;3.00;;;1.75;;
20480;SDS011;10399;50.754;3.366;2022-09-01T03:01:21;2.33;;;1.55;;
20480;SDS011;10399;50.754;3.366;2022-09-01T03:03:59;5.63;;;1.95;;
20480;SDS011;10399;50.754;3.366;2022-09-01T03:06:28;3.15;;;1.90;;
20480;SDS011;10399;50.754;3.366;2022-09-01T03:08:59;2.90;;;1.55;;
20480;SDS011;10399;50.754;3.366;2022-09-01T03:11:28;3.15;;;1.65;;
20480;SDS011;10399;50.754;3.366;2022-09-01T03:13:57;5.07;;;1.90;;
20480;SDS011;10399;50.754;3.366;2022-09-01T03:16:24;4.07;;;1.90;;
20480;SDS011;10399;50.754;3.366;2022-09-01T03:18:51;6.22;;;1.90;;
20480;SDS011;10399;50.754;3.366;2022-09-01T03:21:19;6.53;;;2.00;;
20480;SDS011;10399;50.754;3.366;2022-09-01T03:23:47;2.58;;;1.98;;
20480;SDS011;10399;50.754;3.366;2022-09-01T03:26:15;3.35;;;1.80;;
20480;SDS011;10399;50.754;3.366;2022-09-01T03:28:47;2.53;;;1.90;;
20480;SDS011;10399;50.754;3.366;2022-09-01T03:31:18;5.05;;;2.10;;
20480;SDS011;10399;50.754;3.366;2022-09-01T03:33:46;10.52;;;2.08;;
20480;SDS011;10399;50.754;3.366;2022-09-01T03:36:13;5.65;;;1.90;;
20480;SDS011;10399;50.754;3.366;2022-09-01T03:38:47;2.72;;;1.85;;
20480;SDS011;10399;50.754;3.366;2022-09-01T03:41:17;5.43;;;2.28;;
20480;SDS011;10399;50.754;3.366;2022-09-01T03:43:50;5.20;;;2.08;;
20480;SDS011;10399;50.754;3.366;2022-09-01T03:46:23;3.20;;;2.00;;
20480;SDS011;10399;50.754;3.366;2022-09-01T03:48:53;4.82;;;2.05;;
20480;SDS011;10399;50.754;3.366;2022-09-01T03:51:21;6.03;;;2.15;;
20480;SDS011;10399;50.754;3.366;2022-09-01T03:53:50;4.93;;;2.20;;
20480;SDS011;10399;50.754;3.366;2022-09-01T03:56:25;9.07;;;2.63;;
20480;SDS011;10399;50.754;3.366;2022-09-01T03:58:53;4.38;;;1.77;;
20480;SDS011;10399;50.754;3.366;2022-09-01T04:01:23;3.05;;;1.90;;
20480;SDS011;10399;50.754;3.366;2022-09-01T04:03:52;4.72;;;2.30;;
20480;SDS011;10399;50.754;3.366;2022-09-01T04:06:19;6.00;;;1.80;;
20480;SDS011;10399;50.754;3.366;2022-09-01T04:08:50;5.95;;;1.95;;
20480;SDS011;10399;50.754;3.366;2022-09-01T04:11:23;4.75;;;2.42;;
20480;SDS011;10399;50.754;3.366;2022-09-01T04:13:50;5.80;;;1.98;;
20480;SDS011;10399;50.754;3.366;2022-09-01T04:19:06;6.30;;;2.33;;
20480;SDS011;10399;50.754;3.366;2022-09-01T04:21:46;4.13;;;2.15;;
20480;SDS011;10399;50.754;3.366;2022-09-01T04:24:17;6.20;;;2.30;;
20480;SDS011;10399;50.754;3.366;2022-09-01T04:26:55;7.43;;;2.08;;
20480;SDS011;10399;50.754;3.366;2022-09-01T04:29:25;6.28;;;1.85;;
20480;SDS011;10399;50.754;3.366;2022-09-01T04:31:57;3.45;;;2.15;;
20480;SDS011;10399;50.754;3.366;2022-09-01T04:34:32;4.22;;;1.95;;
20480;SDS011;10399;50.754;3.366;2022-09-01T04:37:11;4.18;;;2.13;;
20480;SDS011;10399;50.754;3.366;2022-09-01T04:39:40;8.38;;;1.77;;
20480;SDS011;10399;50.754;3.366;2022-09-01T04:42:20;8.75;;;2.90;;
20480;SDS011;10399;50.754;3.366;2022-09-01T04:44:50;7.85;;;2.33;;
20480;SDS011;10399;50.754;3.366;2022-09-01T04:47:18;7.78;;;2.53;;
20480;SDS011;10399;50.754;3.366;2022-09-01T04:50:02;5.95;;;2.20;;
20480;SDS011;10399;50.754;3.366;2022-09-01T04:52:40;6.95;;;2.08;;
20480;SDS011;10399;50.754;3.366;2022-09-01T04:55:09;7.70;;;2.38;;
20480;SDS011;10399;50.754;3.366;2022-09-01T04:57:44;10.38;;;2.30;;
20480;SDS011;10399;50.754;3.366;2022-09-01T05:00:14;7.55;;;2.20;;
20480;SDS011;10399;50.754;3.366;2022-09-01T05:02:56;7.25;;;2.30;;
20480;SDS011;10399;50.754;3.366;2022-09-01T05:05:42;5.90;;;2.20;;
20480;SDS011;10399;50.754;3.366;2022-09-01T05:08:16;13.15;;;2.35;;
20480;SDS011;10399;50.754;3.366;2022-09-01T05:10:50;8.68;;;2.40;;
20480;SDS011;10399;50.754;3.366;2022-09-01T05:13:19;14.13;;;2.58;;
20480;SDS011;10399;50.754;3.366;2022-09-01T05:15:58;7.28;;;2.20;;
20480;SDS011;10399;50.754;3.366;2022-09-01T05:18:27;13.38;;;2.17;;
20480;SDS011;10399;50.754;3.366;2022-09-01T05:20:55;8.77;;;2.63;;
20480;SDS011;10399;50.754;3.366;2022-09-01T05:23:22;9.65;;;2.38;;
20480;SDS011;10399;50.754;3.366;2022-09-01T05:25:51;9.73;;;2.17;;
20480;SDS011;10399;50.754;3.366;2022-09-01T05:28:20;7.57;;;2.30;;
20480;SDS011;10399;50.754;3.366;2022-09-01T05:30:51;6.97;;;2.40;;
20480;SDS011;10399;50.754;3.366;2022-09-01T05:33:20;18.85;;;4.72;;
20480;SDS011;10399;50.754;3.366;2022-09-01T05:35:52;9.75;;;2.33;;
20480;SDS011;10399;50.754;3.366;2022-09-01T05:38:21;10.13;;;3.08;;
20480;SDS011;10399;50.754;3.366;2022-09-01T05:40:59;10.65;;;2.90;;
20480;SDS011;10399;50.754;3.366;2022-09-01T05:43:30;5.57;;;2.03;;
20480;SDS011;10399;50.754;3.366;2022-09-01T05:45:58;9.77;;;2.35;;
20480;SDS011;10399;50.754;3.366;2022-09-01T05:48:32;7.72;;;2.38;;
20480;SDS011;10399;50.754;3.366;2022-09-01T05:51:03;3.67;;;2.28;;
20480;SDS011;10399;50.754;3.366;2022-09-01T05:53:55;8.18;;;1.83;;
20480;SDS011;10399;50.754;3.366;2022-09-01T05:56:25;6.00;;;2.50;;
20480;SDS011;10399;50.754;3.366;2022-09-01T05:58:54;13.63;;;2.40;;
20480;SDS011;10399;50.754;3.366;2022-09-01T06:01:43;7.07;;;2.42;;
20480;SDS011;10399;50.754;3.366;2022-09-01T06:04:15;6.88;;;2.53;;
20480;SDS011;10399;50.754;3.366;2022-09-01T06:06:44;9.82;;;3.50;;
20480;SDS011;10399;50.754;3.366;2022-09-01T06:09:37;9.18;;;2.70;;
20480;SDS011;10399;50.754;3.366;2022-09-01T06:12:05;5.25;;;2.53;;
20480;SDS011;10399;50.754;3.366;2022-09-01T06:14:44;3.70;;;2.28;;
20480;SDS011;10399;50.754;3.366;2022-09-01T06:17:12;15.73;;;3.10;;
20480;SDS011;10399;50.754;3.366;2022-09-01T06:19:42;7.30;;;2.65;;
20480;SDS011;10399;50.754;3.366;2022-09-01T06:22:09;11.23;;;2.75;;
20480;SDS011;10399;50.754;3.366;2022-09-01T06:24:37;5.72;;;2.35;;
20480;SDS011;10399;50.754;3.366;2022-09-01T06:27:05;6.43;;;2.97;;
20480;SDS011;10399;50.754;3.366;2022-09-01T06:29:36;5.75;;;2.60;;
20480;SDS011;10399;50.754;3.366;2022-09-01T06:32:05;11.85;;;3.05;;
20480;SDS011;10399;50.754;3.366;2022-09-01T06:34:38;10.23;;;3.05;;
20480;SDS011;10399;50.754;3.366;2022-09-01T06:37:10;6.00;;;3.20;;
20480;SDS011;10399;50.754;3.366;2022-09-01T06:39:38;6.60;;;2.97;;
20480;SDS011;10399;50.754;3.366;2022-09-01T06:42:05;7.22;;;2.78;;
20480;SDS011;10399;50.754;3.366;2022-09-01T06:44:34;10.00;;;3.22;;
20480;SDS011;10399;50.754;3.366;2022-09-01T06:47:06;6.20;;;3.53;;
20480;SDS011;10399;50.754;3.366;2022-09-01T06:49:34;10.18;;;3.33;;
20480;SDS011;10399;50.754;3.366;2022-09-01T06:52:03;11.90;;;3.47;;
20480;SDS011;10399;50.754;3.366;2022-09-01T06:54:32;7.28;;;3.10;;
20480;SDS011;10399;50.754;3.366;2022-09-01T06:57:03;10.60;;;3.60;;
20480;SDS011;10399;50.754;3.366;2022-09-01T06:59:50;5.97;;;3.03;;
20480;SDS011;10399;50.754;3.366;2022-09-01T07:02:19;4.88;;;2.97;;
20480;SDS011;10399;50.754;3.366;2022-09-01T07:04:52;5.20;;;3.15;;
20480;SDS011;10399;50.754;3.366;2022-09-01T07:07:19;7.47;;;3.58;;
20480;SDS011;10399;50.754;3.366;2022-09-01T07:10:07;16.75;;;3.42;;
20480;SDS011;10399;50.754;3.366;2022-09-01T07:12:51;11.20;;;3.95;;
20480;SDS011;10399;50.754;3.366;2022-09-01T07:15:38;7.80;;;3.95;;
20480;SDS011;10399;50.754;3.366;2022-09-01T07:18:29;6.70;;;3.65;;
20480;SDS011;10399;50.754;3.366;2022-09-01T07:20:57;12.30;;;3.83;;
20480;SDS011;10399;50.754;3.366;2022-09-01T07:23:45;7.57;;;3.63;;
20480;SDS011;10399;50.754;3.366;2022-09-01T07:26:33;15.35;;;4.32;;
20480;SDS011;10399;50.754;3.366;2022-09-01T07:29:02;11.20;;;3.63;;
20480;SDS011;10399;50.754;3.366;2022-09-01T07:31:37;11.93;;;4.07;;
20480;SDS011;10399;50.754;3.366;2022-09-01T07:34:26;11.32;;;4.18;;
20480;SDS011;10399;50.754;3.366;2022-09-01T07:37:11;11.27;;;4.32;;
20480;SDS011;10399;50.754;3.366;2022-09-01T07:39:59;7.38;;;4.00;;
20480;SDS011;10399;50.754;3.366;2022-09-01T07:42:46;7.15;;;3.75;;
20480;SDS011;10399;50.754;3.366;2022-09-01T07:45:29;18.58;;;5.40;;
20480;SDS011;10399;50.754;3.366;2022-09-01T07:47:57;11.52;;;4.20;;
20480;SDS011;10399;50.754;3.366;2022-09-01T07:50:29;8.35;;;4.22;;
20480;SDS011;10399;50.754;3.366;2022-09-01T07:53:17;8.20;;;4.80;;
20480;SDS011;10399;50.754;3.366;2022-09-01T07:55:54;28.13;;;5.55;;
20480;SDS011;10399;50.754;3.366;2022-09-01T07:58:23;7.13;;;4.10;;
20480;SDS011;10399;50.754;3.366;2022-09-01T08:00:52;11.00;;;4.35;;
20480;SDS011;10399;50.754;3.366;2022-09-01T08:03:22;14.88;;;4.25;;
20480;SDS011;10399;50.754;3.366;2022-09-01T08:05:50;12.20;;;4.18;;
20480;SDS011;10399;50.754;3.366;2022-09-01T08:08:23;10.07;;;4.50;;
20480;SDS011;10399;50.754;3.366;2022-09-01T08:10:54;6.68;;;4.40;;
20480;SDS011;10399;50.754;3.366;2022-09-01T08:13:29;9.65;;;4.13;;
20480;SDS011;10399;50.754;3.366;2022-09-01T08:16:06;8.00;;;3.65;;
20480;SDS011;10399;50.754;3.366;2022-09-01T08:18:43;9.98;;;5.15;;
20480;SDS011;10399;50.754;3.366;2022-09-01T08:21:15;12.07;;;4.28;;
20480;SDS011;10399;50.754;3.366;2022-09-01T08:23:47;5.75;;;4.18;;
20480;SDS011;10399;50.754;3.366;2022-09-01T08:26:16;6.00;;;4.25;;
20480;SDS011;10399;50.754;3.366;2022-09-01T08:28:44;14.48;;;4.45;;
20480;SDS011;10399;50.754;3.366;2022-09-01T08:31:20;11.25;;;4.38;;
20480;SDS011;10399;50.754;3.366;2022-09-01T08:33:48;9.15;;;4.40;;
20480;SDS011;10399;50.754;3.366;2022-09-01T08:36:16;9.68;;;4.43;;
20480;SDS011;10399;50.754;3.366;2022-09-01T08:38:50;10.30;;;5.20;;
20480;SDS011;10399;50.754;3.366;2022-09-01T08:41:40;11.90;;;4.55;;
20480;SDS011;10399;50.754;3.366;2022-09-01T08:44:30;13.52;;;4.85;;
20480;SDS011;10399;50.754;3.366;2022-09-01T08:47:06;9.02;;;4.90;;
20480;SDS011;10399;50.754;3.366;2022-09-01T08:49:40;14.38;;;5.40;;
20480;SDS011;10399;50.754;3.366;2022-09-01T08:55:05;13.07;;;4.63;;
20480;SDS011;10399;50.754;3.366;2022-09-01T08:57:40;9.05;;;4.10;;
20480;SDS011;10399;50.754;3.366;2022-09-01T09:00:12;11.43;;;4.90;;
20480;SDS011;10399;50.754;3.366;2022-09-01T09:11:32;6.82;;;4.30;;
20480;SDS011;10399;50.754;3.366;2022-09-01T09:14:18;10.90;;;4.32;;
20480;SDS011;10399;50.754;3.366;2022-09-01T09:17:06;11.80;;;4.22;;
20480;SDS011;10399;50.754;3.366;2022-09-01T09:19:34;5.45;;;3.70;;
20480;SDS011;10399;50.754;3.366;2022-09-01T09:22:07;10.75;;;4.47;;
20480;SDS011;10399;50.754;3.366;2022-09-01T09:27:22;10.30;;;4.80;;
20480;SDS011;10399;50.754;3.366;2022-09-01T09:29:55;11.50;;;4.28;;
20480;SDS011;10399;50.754;3.366;2022-09-01T09:35:49;9.73;;;4.30;;
20480;SDS011;10399;50.754;3.366;2022-09-01T09:38:18;9.75;;;4.38;;
20480;SDS011;10399;50.754;3.366;2022-09-01T09:43:47;8.55;;;4.25;;
20480;SDS011;10399;50.754;3.366;2022-09-01T09:51:43;8.82;;;4.05;;
20480;SDS011;10399;50.754;3.366;2022-09-01T09:54:18;10.90;;;4.40;;
20480;SDS011;10399;50.754;3.366;2022-09-01T09:56:49;12.90;;;4.93;;
20480;SDS011;10399;50.754;3.366;2022-09-01T09:59:48;7.78;;;4.32;;
20480;SDS011;10399;50.754;3.366;2022-09-01T10:02:42;13.25;;;4.43;;
20480;SDS011;10399;50.754;3.366;2022-09-01T10:08:03;8.23;;;4.38;;
20480;SDS011;10399;50.754;3.366;2022-09-01T10:10:37;13.50;;;4.18;;
20480;SDS011;10399;50.754;3.366;2022-09-01T10:13:10;7.60;;;3.65;;
20480;SDS011;10399;50.754;3.366;2022-09-01T10:15:40;6.60;;;3.85;;
20480;SDS011;10399;50.754;3.366;2022-09-01T10:18:17;8.43;;;4.22;;
20480;SDS011;10399;50.754;3.366;2022-09-01T10:20:58;8.20;;;4.07;;
20480;SDS011;10399;50.754;3.366;2022-09-01T10:23:30;7.03;;;3.70;;
20480;SDS011;10399;50.754;3.366;2022-09-01T10:26:05;14.80;;;4.30;;
20480;SDS011;10399;50.754;3.366;2022-09-01T10:28:45;8.75;;;4.22;;
20480;SDS011;10399;50.754;3.366;2022-09-01T10:31:18;8.52;;;4.20;;
20480;SDS011;10399;50.754;3.366;2022-09-01T10:33:47;9.10;;;3.85;;
20480;SDS011;10399;50.754;3.366;2022-09-01T10:36:15;6.35;;;3.85;;
20480;SDS011;10399;50.754;3.366;2022-09-01T10:38:43;5.78;;;3.47;;
20480;SDS011;10399;50.754;3.366;2022-09-01T10:44:09;7.07;;;3.70;;
20480;SDS011;10399;50.754;3.366;2022-09-01T10:46:44;7.68;;;3.72;;
20480;SDS011;10399;50.754;3.366;2022-09-01T10:51:55;6.53;;;3.50;;
20480;SDS011;10399;50.754;3.366;2022-09-01T10:57:37;6.43;;;3.63;;
20480;SDS011;10399;50.754;3.366;2022-09-01T11:06:05;12.88;;;3.65;;
20480;SDS011;10399;50.754;3.366;2022-09-01T11:08:45;8.38;;;3.03;;
20480;SDS011;10399;50.754;3.366;2022-09-01T11:14:18;5.65;;;2.78;;
20480;SDS011;10399;50.754;3.366;2022-09-01T11:19:46;5.82;;;2.72;;
20480;SDS011;10399;50.754;3.366;2022-09-01T11:28:07;15.65;;;3.05;;
20480;SDS011;10399;50.754;3.366;2022-09-01T11:36:26;4.35;;;3.00;;
20480;SDS011;10399;50.754;3.366;2022-09-01T11:44:12;10.00;;;3.35;;
20480;SDS011;10399;50.754;3.366;2022-09-01T11:46:50;4.25;;;2.88;;
20480;SDS011;10399;50.754;3.366;2022-09-01T11:49:28;7.70;;;3.22;;
20480;SDS011;10399;50.754;3.366;2022-09-01T11:51:57;9.00;;;3.10;;
20480;SDS011;10399;50.754;3.366;2022-09-01T11:54:26;6.30;;;2.97;;
20480;SDS011;10399;50.754;3.366;2022-09-01T11:56:55;4.80;;;3.15;;
20480;SDS011;10399;50.754;3.366;2022-09-01T11:59:32;6.07;;;2.75;;
20480;SDS011;10399;50.754;3.366;2022-09-01T12:02:00;3.70;;;2.80;;
20480;SDS011;10399;50.754;3.366;2022-09-01T12:04:33;4.82;;;2.20;;
20480;SDS011;10399;50.754;3.366;2022-09-01T12:07:04;7.05;;;2.67;;
20480;SDS011;10399;50.754;3.366;2022-09-01T12:09:42;5.45;;;2.25;;
20480;SDS011;10399;50.754;3.366;2022-09-01T12:15:07;8.48;;;2.70;;
20480;SDS011;10399;50.754;3.366;2022-09-01T12:17:38;5.68;;;2.70;;
20480;SDS011;10399;50.754;3.366;2022-09-01T12:20:22;5.07;;;2.35;;
20480;SDS011;10399;50.754;3.366;2022-09-01T12:22:58;3.83;;;2.28;;
20480;SDS011;10399;50.754;3.366;2022-09-01T12:25:31;4.32;;;2.33;;
20480;SDS011;10399;50.754;3.366;2022-09-01T12:28:00;6.60;;;2.67;;
20480;SDS011;10399;50.754;3.366;2022-09-01T12:30:29;10.40;;;2.30;;
20480;SDS011;10399;50.754;3.366;2022-09-01T12:33:02;7.70;;;2.60;;
20480;SDS011;10399;50.754;3.366;2022-09-01T12:35:51;3.42;;;2.20;;
20480;SDS011;10399;50.754;3.366;2022-09-01T12:38:47;5.50;;;2.50;;
20480;SDS011;10399;50.754;3.366;2022-09-01T12:41:24;3.42;;;2.22;;
20480;SDS011;10399;50.754;3.366;2022-09-01T12:46:57;4.25;;;2.10;;
20480;SDS011;10399;50.754;3.366;2022-09-01T12:49:33;4.90;;;2.50;;
20480;SDS011;10399;50.754;3.366;2022-09-01T12:52:05;7.50;;;3.90;;
20480;SDS011;10399;50.754;3.366;2022-09-01T12:54:36;5.85;;;3.40;;
20480;SDS011;10399;50.754;3.366;2022-09-01T12:57:03;6.90;;;2.83;;
20480;SDS011;10399;50.754;3.366;2022-09-01T12:59:31;3.40;;;2.17;;
20480;SDS011;10399;50.754;3.366;2022-09-01T13:02:36;3.67;;;2.60;;
20480;SDS011;10399;50.754;3.366;2022-09-01T13:08:04;3.45;;;2.00;;
20480;SDS011;10399;50.754;3.366;2022-09-01T13:10:41;4.90;;;2.22;;
20480;SDS011;10399;50.754;3.366;2022-09-01T13:13:09;3.20;;;2.30;;
20480;SDS011;10399;50.754;3.366;2022-09-01T13:15:41;6.28;;;2.33;;
20480;SDS011;10399;50.754;3.366;2022-09-01T13:18:22;3.78;;;1.92;;
20480;SDS011;10399;50.754;3.366;2022-09-01T13:20:50;2.72;;;1.80;;
20480;SDS011;10399;50.754;3.366;2022-09-01T13:23:18;3.63;;;1.70;;
20480;SDS011;10399;50.754;3.366;2022-09-01T13:25:46;1.75;;;1.60;;
20480;SDS011;10399;50.754;3.366;2022-09-01T13:28:14;4.03;;;1.80;;
20480;SDS011;10399;50.754;3.366;2022-09-01T13:30:43;12.77;;;2.00;;
20480;SDS011;10399;50.754;3.366;2022-09-01T13:33:13;3.95;;;2.30;;
20480;SDS011;10399;50.754;3.366;2022-09-01T13:35:45;3.47;;;1.83;;
20480;SDS011;10399;50.754;3.366;2022-09-01T13:38:13;4.20;;;2.05;;
20480;SDS011;10399;50.754;3.366;2022-09-01T13:40:42;5.22;;;1.90;;
20480;SDS011;10399;50.754;3.366;2022-09-01T13:43:15;6.60;;;2.00;;
20480;SDS011;10399;50.754;3.366;2022-09-01T13:45:45;2.63;;;2.10;;
20480;SDS011;10399;50.754;3.366;2022-09-01T13:48:13;2.70;;;1.67;;
20480;SDS011;10399;50.754;3.366;2022-09-01T13:50:42;4.75;;;2.08;;
20480;SDS011;10399;50.754;3.366;2022-09-01T13:53:32;2.47;;;1.70;;
20480;SDS011;10399;50.754;3.366;2022-09-01T13:55:59;6.57;;;2.22;;
20480;SDS011;10399;50.754;3.366;2022-09-01T13:58:27;9.73;;;1.80;;
20480;SDS011;10399;50.754;3.366;2022-09-01T14:00:54;4.50;;;1.77;;
20480;SDS011;10399;50.754;3.366;2022-09-01T14:03:24;7.03;;;2.00;;
20480;SDS011;10399;50.754;3.366;2022-09-01T14:05:52;4.10;;;1.77;;
20480;SDS011;10399;50.754;3.366;2022-09-01T14:08:20;5.30;;;1.83;;
20480;SDS011;10399;50.754;3.366;2022-09-01T14:10:49;3.28;;;1.70;;
20480;SDS011;10399;50.754;3.366;2022-09-01T14:13:18;3.92;;;2.28;;
20480;SDS011;10399;50.754;3.366;2022-09-01T14:15:47;3.45;;;1.80;;
20480;SDS011;10399;50.754;3.366;2022-09-01T14:18:15;5.95;;;2.15;;
20480;SDS011;10399;50.754;3.366;2022-09-01T14:20:44;2.85;;;1.90;;
20480;SDS011;10399;50.754;3.366;2022-09-01T14:23:13;4.57;;;1.50;;
20480;SDS011;10399;50.754;3.366;2022-09-01T14:25:43;8.02;;;2.20;;
20480;SDS011;10399;50.754;3.366;2022-09-01T14:28:11;2.85;;;1.70;;
20480;SDS011;10399;50.754;3.366;2022-09-01T14:30:41;5.30;;;1.80;;
20480;SDS011;10399;50.754;3.366;2022-09-01T14:33:08;6.60;;;1.65;;
20480;SDS011;10399;50.754;3.366;2022-09-01T14:35:41;5.13;;;2.25;;
20480;SDS011;10399;50.754;3.366;2022-09-01T14:38:09;5.40;;;1.60;;
20480;SDS011;10399;50.754;3.366;2022-09-01T14:40:37;5.72;;;1.80;;
20480;SDS011;10399;50.754;3.366;2022-09-01T14:43:05;3.28;;;1.73;;
20480;SDS011;10399;50.754;3.366;2022-09-01T14:45:35;7.97;;;1.90;;
20480;SDS011;10399;50.754;3.366;2022-09-01T14:48:03;5.70;;;1.80;;
20480;SDS011;10399;50.754;3.366;2022-09-01T14:50:30;3.13;;;1.73;;
20480;SDS011;10399;50.754;3.366;2022-09-01T14:52:59;4.72;;;1.88;;
20480;SDS011;10399;50.754;3.366;2022-09-01T14:55:28;4.63;;;1.60;;
20480;SDS011;10399;50.754;3.366;2022-09-01T14:57:56;4.07;;;1.50;;
20480;SDS011;10399;50.754;3.366;2022-09-01T15:00:25;3.38;;;1.58;;
20480;SDS011;10399;50.754;3.366;2022-09-01T15:02:53;3.10;;;1.88;;
20480;SDS011;10399;50.754;3.366;2022-09-01T15:05:21;5.85;;;1.52;;
20480;SDS011;10399;50.754;3.366;2022-09-01T15:07:49;5.63;;;1.70;;
20480;SDS011;10399;50.754;3.366;2022-09-01T15:10:18;5.07;;;1.45;;
20480;SDS011;10399;50.754;3.366;2022-09-01T15:12:51;4.75;;;1.70;;
20480;SDS011;10399;50.754;3.366;2022-09-01T15:15:20;4.35;;;1.90;;
20480;SDS011;10399;50.754;3.366;2022-09-01T15:17:47;3.20;;;1.60;;
20480;SDS011;10399;50.754;3.366;2022-09-01T15:20:15;2.83;;;1.88;;
20480;SDS011;10399;50.754;3.366;2022-09-01T15:23:01;7.50;;;1.85;;
20480;SDS011;10399;50.754;3.366;2022-09-01T15:25:28;5.30;;;2.00;;
20480;SDS011;10399;50.754;3.366;2022-09-01T15:27:55;3.65;;;1.70;;
20480;SDS011;10399;50.754;3.366;2022-09-01T15:30:22;4.30;;;1.88;;
20480;SDS011;10399;50.754;3.366;2022-09-01T15:32:51;6.25;;;1.75;;
20480;SDS011;10399;50.754;3.366;2022-09-01T15:35:22;8.63;;;1.70;;
20480;SDS011;10399;50.754;3.366;2022-09-01T15:37:50;6.25;;;1.60;;
20480;SDS011;10399;50.754;3.366;2022-09-01T15:40:18;4.55;;;1.83;;
20480;SDS011;10399;50.754;3.366;2022-09-01T15:42:45;5.63;;;1.90;;
20480;SDS011;10399;50.754;3.366;2022-09-01T15:45:14;2.60;;;1.60;;
20480;SDS011;10399;50.754;3.366;2022-09-01T15:47:43;5.40;;;1.55;;
20480;SDS011;10399;50.754;3.366;2022-09-01T15:50:12;4.97;;;1.55;;
20480;SDS011;10399;50.754;3.366;2022-09-01T15:55:21;5.85;;;1.75;;
20480;SDS011;10399;50.754;3.366;2022-09-01T15:57:51;4.68;;;1.83;;
20480;SDS011;10399;50.754;3.366;2022-09-01T16:00:21;2.67;;;1.67;;
20480;SDS011;10399;50.754;3.366;2022-09-01T16:02:51;5.13;;;1.90;;
20480;SDS011;10399;50.754;3.366;2022-09-01T16:05:20;5.30;;;1.85;;
20480;SDS011;10399;50.754;3.366;2022-09-01T16:07:55;4.25;;;1.80;;
20480;SDS011;10399;50.754;3.366;2022-09-01T16:10:22;6.60;;;1.92;;
20480;SDS011;10399;50.754;3.366;2022-09-01T16:12:49;6.22;;;2.03;;
20480;SDS011;10399;50.754;3.366;2022-09-01T16:15:19;4.75;;;1.83;;
20480;SDS011;10399;50.754;3.366;2022-09-01T16:17:51;7.47;;;2.78;;
20480;SDS011;10399;50.754;3.366;2022-09-01T16:23:20;5.13;;;1.92;;
20480;SDS011;10399;50.754;3.366;2022-09-01T16:25:58;3.25;;;1.65;;
20480;SDS011;10399;50.754;3.366;2022-09-01T16:33:36;5.35;;;1.95;;
20480;SDS011;10399;50.754;3.366;2022-09-01T16:38:45;3.97;;;1.55;;
20480;SDS011;10399;50.754;3.366;2022-09-01T16:41:22;3.97;;;1.55;;
20480;SDS011;10399;50.754;3.366;2022-09-01T16:44:16;2.40;;;1.50;;
20480;SDS011;10399;50.754;3.366;2022-09-01T16:49:43;3.65;;;1.77;;
20480;SDS011;10399;50.754;3.366;2022-09-01T16:57:45;2.13;;;1.70;;
20480;SDS011;10399;50.754;3.366;2022-09-01T17:06:17;5.47;;;1.98;;
20480;SDS011;10399;50.754;3.366;2022-09-01T17:08:56;7.32;;;1.70;;